Time;durP1;ratioP1;P1;durP2;ratioP2;P2;SDS_P1;SDS_P2;PMS_P1;PMS_P2;Temp;Humidity;BMP_temperature;BMP_pressure;BME280_temperature;BME280_humidity;BME280_pressure;Samples;Min_cycle;Max_cycle;Signal;HPM_P1;HPM_P2
2022/07/22 00:01:37;;;;;;;3.25;2.20;;;;;;;16.74;88.68;99177.41;5093237;28;20036;-63
2022/07/22 00:04:03;;;;;;;5.85;2.88;;;;;;;16.66;88.07;99183.06;5088670;28;20337;-63
2022/07/22 00:06:29;;;;;;;3.17;2.53;;;;;;;16.73;88.10;99176.56;5104543;28;20045;-62
2022/07/22 00:08:55;;;;;;;4.20;2.50;;;;;;;16.69;88.23;99174.22;5099274;28;20020;-62
2022/07/22 00:11:21;;;;;;;4.10;2.78;;;;;;;16.68;88.45;99178.59;5100637;28;20077;-63
2022/07/22 00:13:46;;;;;;;3.10;2.88;;;;;;;16.76;87.87;99178.19;5092576;28;20048;-62
2022/07/22 00:16:12;;;;;;;3.33;2.67;;;;;;;16.70;88.60;99174.13;5104969;28;20066;-63
2022/07/22 00:18:38;;;;;;;4.70;2.60;;;;;;;16.70;88.52;99171.50;5105219;28;20078;-62
2022/07/22 00:21:04;;;;;;;2.95;2.70;;;;;;;16.71;88.41;99181.03;5105113;28;20031;-62
2022/07/22 00:23:29;;;;;;;3.10;2.80;;;;;;;16.65;88.44;99165.69;5105181;28;20020;-62
2022/07/22 00:25:55;;;;;;;3.42;3.10;;;;;;;16.61;88.35;99173.78;5102677;28;20104;-63
2022/07/22 00:28:21;;;;;;;3.55;2.28;;;;;;;16.68;88.22;99178.59;5104085;28;20028;-62
2022/07/22 00:30:46;;;;;;;4.75;2.70;;;;;;;16.70;88.48;99183.72;5105061;28;20073;-62
2022/07/22 00:33:12;;;;;;;5.95;2.40;;;;;;;16.69;88.59;99182.91;5104944;28;20047;-61
2022/07/22 00:35:38;;;;;;;2.53;2.33;;;;;;;16.70;88.84;99175.88;5104720;28;20035;-62
2022/07/22 00:38:04;;;;;;;4.25;2.63;;;;;;;16.66;88.59;99174.38;5104901;28;20038;-62
2022/07/22 00:40:29;;;;;;;4.78;2.95;;;;;;;16.65;88.71;99173.53;5104733;28;20028;-62
2022/07/22 00:42:55;;;;;;;3.00;2.45;;;;;;;16.65;88.74;99170.91;5104976;28;20024;-62
2022/07/22 00:45:20;;;;;;;3.58;2.63;;;;;;;16.70;87.75;99173.28;5103915;28;20087;-62
2022/07/22 00:47:46;;;;;;;5.30;2.50;;;;;;;16.64;88.82;99182.28;5100248;28;20300;-62
2022/07/22 00:50:14;;;;;;;6.18;2.90;;;;;;;16.71;88.47;99173.19;5103325;28;20032;-64
2022/07/22 00:52:41;;;;;;;3.40;2.75;;;;;;;16.76;88.49;99180.78;5086486;28;20012;-62
2022/07/22 00:55:07;;;;;;;2.78;2.30;;;;;;;16.70;88.70;99187.22;5104558;28;20066;-62
2022/07/22 00:57:33;;;;;;;3.42;2.22;;;;;;;16.69;88.01;99180.28;5104516;28;20036;-62
2022/07/22 00:59:59;;;;;;;3.92;2.60;;;;;;;16.66;88.00;99184.81;5103283;28;20309;-62
2022/07/22 01:02:25;;;;;;;2.88;2.30;;;;;;;16.59;88.18;99180.84;5104300;28;20087;-62
2022/07/22 01:04:51;;;;;;;3.92;2.28;;;;;;;16.66;88.16;99183.06;5104169;28;20062;-62
2022/07/22 01:07:16;;;;;;;6.22;2.60;;;;;;;16.64;88.56;99192.75;5104683;28;20035;-62
2022/07/22 01:09:43;;;;;;;3.47;2.55;;;;;;;16.63;88.81;99191.09;5104124;28;20360;-62
2022/07/22 01:12:09;;;;;;;2.60;2.40;;;;;;;16.65;88.24;99188.38;5098015;28;20252;-62
2022/07/22 01:14:35;;;;;;;6.68;2.83;;;;;;;16.64;88.41;99186.69;5092882;28;20063;-63
2022/07/22 01:17:00;;;;;;;4.30;2.65;;;;;;;16.62;88.10;99189.38;5103961;28;20024;-63
2022/07/22 01:19:26;;;;;;;3.03;2.65;;;;;;;16.63;87.88;99195.44;5104120;28;20023;-62
2022/07/22 01:21:51;;;;;;;3.08;2.33;;;;;;;16.61;88.59;99213.00;5121639;28;20039;-63
2022/07/22 01:24:17;;;;;;;3.80;2.63;;;;;;;16.58;88.23;99195.72;5109368;28;20039;-62
2022/07/22 01:26:43;;;;;;;4.80;2.67;;;;;;;16.57;88.61;99191.41;5103771;28;20020;-64
2022/07/22 01:29:08;;;;;;;2.47;2.22;;;;;;;16.63;88.19;99198.94;5102646;28;20366;-63
2022/07/22 01:31:34;;;;;;;4.22;2.60;;;;;;;16.57;87.82;99196.63;5103913;28;20050;-62
2022/07/22 01:34:00;;;;;;;3.30;2.50;;;;;;;16.63;88.53;99206.78;5103778;28;20028;-62
2022/07/22 01:36:26;;;;;;;2.95;2.72;;;;;;;16.66;88.70;99210.97;5103750;28;20090;-62
2022/07/22 01:38:51;;;;;;;3.03;2.20;;;;;;;16.60;88.21;99196.47;5103581;28;20032;-62
2022/07/22 01:41:17;;;;;;;4.00;2.95;;;;;;;16.64;88.34;99213.66;5103870;28;20035;-63
2022/07/22 01:43:43;;;;;;;3.08;2.65;;;;;;;16.65;88.30;99209.31;5085580;28;20028;-63
2022/07/22 01:46:09;;;;;;;5.20;2.30;;;;;;;16.63;88.36;99201.53;5101071;28;20370;-63
2022/07/22 01:48:34;;;;;;;3.47;2.42;;;;;;;16.68;87.68;99217.81;5103168;28;20031;-63
2022/07/22 01:51:00;;;;;;;5.07;2.70;;;;;;;16.71;88.39;99215.03;5103423;28;20327;-63
2022/07/22 01:53:26;;;;;;;3.13;2.35;;;;;;;16.70;88.64;99213.34;5103193;28;20031;-62
2022/07/22 01:55:52;;;;;;;2.78;2.58;;;;;;;16.65;87.54;99214.53;5103453;28;20028;-62
2022/07/22 01:58:18;;;;;;;2.90;2.60;;;;;;;16.69;87.62;99210.81;5102342;28;20221;-63
2022/07/22 02:00:44;;;;;;;5.68;2.50;;;;;;;16.71;87.68;99208.97;5103169;28;20028;-62
2022/07/22 02:03:10;;;;;;;4.65;2.53;;;;;;;16.66;88.13;99209.22;5103323;28;20313;-62
2022/07/22 02:05:36;;;;;;;3.80;2.63;;;;;;;16.68;87.70;99215.19;5103064;28;20111;-62
2022/07/22 02:08:04;;;;;;;2.60;2.40;;;;;;;16.67;87.83;99218.72;5103460;28;20024;-62
2022/07/22 02:10:30;;;;;;;3.42;2.65;;;;;;;16.78;87.19;99222.56;5099644;28;20344;-62
2022/07/22 02:12:57;;;;;;;2.65;2.30;;;;;;;16.79;87.64;99222.47;5102541;28;20031;-62
2022/07/22 02:15:43;;;;;;;3.03;2.58;;;;;;;16.73;87.70;99221.03;5101772;28;20035;-62
2022/07/22 02:18:17;;;;;;;3.58;2.40;;;;;;;16.82;87.32;99227.53;5091240;28;20039;-62
2022/07/22 02:20:43;;;;;;;5.05;2.40;;;;;;;16.83;87.09;99236.19;5100002;28;20205;-62
2022/07/22 02:23:13;;;;;;;3.00;2.70;;;;;;;16.83;87.05;99229.22;5118493;28;20028;-62
2022/07/22 02:25:42;;;;;;;3.42;2.30;;;;;;;16.90;87.22;99234.97;5102630;28;20332;-62
2022/07/22 02:28:08;;;;;;;3.20;2.90;;;;;;;16.90;86.53;99238.44;5102644;28;20091;-63
2022/07/22 02:30:34;;;;;;;2.88;2.67;;;;;;;16.90;86.77;99240.19;5102159;28;20343;-62
2022/07/22 02:32:59;;;;;;;3.13;2.50;;;;;;;16.95;86.72;99246.03;5102717;28;20036;-62
2022/07/22 02:35:25;;;;;;;2.78;2.58;;;;;;;16.94;86.82;99246.13;5102650;28;20031;-62
2022/07/22 02:37:51;;;;;;;5.50;2.72;;;;;;;17.00;86.89;99251.00;5102261;28;20024;-64
2022/07/22 02:40:17;;;;;;;2.80;2.60;;;;;;;16.99;86.96;99250.19;5102637;28;20044;-64
2022/07/22 02:42:42;;;;;;;2.55;2.35;;;;;;;17.01;86.45;99243.06;5102079;28;20042;-63
2022/07/22 02:45:08;;;;;;;5.18;3.13;;;;;;;16.89;86.11;99254.22;5101254;28;20023;-62
2022/07/22 02:47:34;;;;;;;2.70;2.50;;;;;;;16.97;86.83;99248.56;5101526;28;20032;-62
2022/07/22 02:50:00;;;;;;;4.80;2.60;;;;;;;17.01;85.83;99266.63;5102630;28;20040;-62
2022/07/22 02:52:25;;;;;;;2.85;2.65;;;;;;;17.05;86.02;99269.94;5102538;28;20092;-61
2022/07/22 02:54:51;;;;;;;4.30;2.70;;;;;;;17.01;86.27;99269.22;5102411;28;20031;-62
2022/07/22 02:57:17;;;;;;;6.05;2.80;;;;;;;17.10;86.23;99285.38;5102653;28;20243;-62
2022/07/22 02:59:43;;;;;;;3.60;2.45;;;;;;;17.12;85.81;99275.69;5095656;28;20092;-62
2022/07/22 03:02:08;;;;;;;3.30;2.50;;;;;;;17.09;85.42;99271.44;5102343;28;20111;-62
2022/07/22 03:04:34;;;;;;;3.35;2.40;;;;;;;17.13;85.68;99285.19;5102178;28;20087;-62
2022/07/22 03:06:59;;;;;;;3.47;2.50;;;;;;;17.09;85.46;99287.16;5101963;28;20305;-63
2022/07/22 03:09:25;;;;;;;3.05;2.72;;;;;;;17.18;85.41;99285.78;5104382;28;20031;-63
2022/07/22 03:11:51;;;;;;;3.67;2.33;;;;;;;17.27;84.93;99284.44;5106442;28;20027;-64
2022/07/22 03:14:18;;;;;;;4.55;2.25;;;;;;;17.30;84.77;99285.13;5106267;28;20095;-63
2022/07/22 03:16:44;;;;;;;2.70;2.45;;;;;;;17.21;84.90;99283.84;5103353;28;20213;-63
2022/07/22 03:19:10;;;;;;;3.03;2.65;;;;;;;17.13;84.92;99280.81;5095637;28;20032;-63
2022/07/22 03:21:35;;;;;;;2.42;2.22;;;;;;;17.24;85.46;99277.59;5101362;28;20020;-63
2022/07/22 03:24:01;;;;;;;2.53;2.33;;;;;;;17.17;85.11;99286.72;5106216;28;20344;-60
2022/07/22 03:26:26;;;;;;;2.50;2.30;;;;;;;17.32;85.14;99291.09;5105936;28;20024;-62
2022/07/22 03:28:52;;;;;;;2.55;2.35;;;;;;;17.42;85.19;99288.81;5104970;28;20111;-63
2022/07/22 03:31:18;;;;;;;2.90;2.60;;;;;;;17.48;84.27;99288.47;5106356;28;20028;-62
2022/07/22 03:33:44;;;;;;;2.80;2.47;;;;;;;17.56;84.28;99295.91;5106090;28;20024;-63
2022/07/22 03:36:09;;;;;;;4.07;2.60;;;;;;;17.52;83.88;99302.25;5106314;28;20316;-63
2022/07/22 03:38:35;;;;;;;2.60;2.28;;;;;;;17.64;84.32;99304.13;5105747;28;20087;-63
2022/07/22 03:41:01;;;;;;;6.05;2.70;;;;;;;17.55;83.58;99304.69;5106144;28;20024;-61
2022/07/22 03:43:27;;;;;;;3.58;2.33;;;;;;;17.73;84.05;99302.78;5101169;28;20028;-62
2022/07/22 03:45:52;;;;;;;4.32;2.60;;;;;;;17.76;83.81;99308.69;5082451;28;20138;-62
2022/07/22 03:48:18;;;;;;;3.33;2.05;;;;;;;17.90;83.30;99313.19;5097610;28;20023;-62
2022/07/22 03:50:44;;;;;;;2.72;2.53;;;;;;;18.00;83.65;99320.47;5094026;28;20106;-63
2022/07/22 03:53:09;;;;;;;2.90;2.38;;;;;;;18.05;82.82;99319.28;5103931;28;20039;-62
2022/07/22 03:55:35;;;;;;;3.80;2.08;;;;;;;18.03;83.16;99302.81;5095177;28;20024;-63
2022/07/22 03:58:00;;;;;;;3.75;2.40;;;;;;;18.16;83.14;99312.59;5097073;28;20043;-62
2022/07/22 04:00:26;;;;;;;2.90;2.40;;;;;;;18.18;82.85;99308.09;5100133;28;20028;-63
2022/07/22 04:02:52;;;;;;;3.38;1.98;;;;;;;18.29;83.72;99317.00;5105645;28;20526;-62
2022/07/22 04:05:18;;;;;;;2.80;2.30;;;;;;;18.27;82.63;99313.63;5104948;28;20031;-62
2022/07/22 04:07:43;;;;;;;4.00;2.63;;;;;;;18.43;82.21;99313.56;5104638;28;20020;-63
2022/07/22 04:10:09;;;;;;;3.35;2.22;;;;;;;18.49;82.11;99317.59;5105352;28;20020;-63
2022/07/22 04:12:37;;;;;;;3.90;2.30;;;;;;;18.46;81.46;99336.97;5104933;28;20032;-62
2022/07/22 04:15:05;;;;;;;2.95;2.28;;;;;;;18.37;81.84;99297.34;5105345;28;20062;-62
2022/07/22 04:17:31;;;;;;;5.05;2.38;;;;;;;18.58;82.69;99322.28;5101986;28;20279;-61
2022/07/22 04:19:57;;;;;;;3.63;2.17;;;;;;;18.63;81.88;99322.00;5095454;28;20028;-62
2022/07/22 04:22:23;;;;;;;3.50;2.30;;;;;;;18.68;81.44;99325.19;5090787;28;20060;-62
2022/07/22 04:24:48;;;;;;;2.55;2.22;;;;;;;18.73;81.65;99331.00;5096598;28;20081;-63
2022/07/22 04:27:14;;;;;;;4.03;2.30;;;;;;;18.78;81.57;99336.81;5102083;28;20083;-62
2022/07/22 04:29:40;;;;;;;3.88;2.55;;;;;;;18.80;80.62;99329.69;5098063;28;20110;-64
2022/07/22 04:32:05;;;;;;;3.10;2.33;;;;;;;18.90;80.36;99342.28;5105132;28;20027;-63
2022/07/22 04:34:31;;;;;;;3.25;2.20;;;;;;;18.89;80.64;99337.97;5104825;28;20047;-61
2022/07/22 04:36:57;;;;;;;4.45;2.05;;;;;;;18.91;81.08;99339.56;5104124;28;20209;-62
2022/07/22 04:39:23;;;;;;;4.25;2.33;;;;;;;18.96;81.38;99336.66;5096941;28;20201;-61
2022/07/22 04:41:48;;;;;;;4.15;1.90;;;;;;;19.04;80.49;99334.41;5104532;28;20271;-61
2022/07/22 04:44:14;;;;;;;3.97;2.10;;;;;;;19.08;80.05;99346.41;5104445;28;20026;-61
2022/07/22 04:46:39;;;;;;;5.03;2.33;;;;;;;19.14;79.71;99335.50;5096109;28;20099;-61
2022/07/22 04:49:05;;;;;;;2.28;2.00;;;;;;;19.21;79.36;99350.84;5088458;28;20352;-62
2022/07/22 04:51:30;;;;;;;4.22;2.08;;;;;;;19.16;79.59;99345.91;5104043;28;20039;-62
2022/07/22 04:53:56;;;;;;;2.88;1.80;;;;;;;19.19;79.11;99344.88;5103096;28;20028;-62
2022/07/22 04:56:22;;;;;;;2.55;2.10;;;;;;;19.28;79.77;99347.78;5102889;28;20396;-63
2022/07/22 04:58:47;;;;;;;2.75;1.98;;;;;;;19.35;78.17;99353.44;5104168;28;20077;-63
2022/07/22 05:01:13;;;;;;;4.10;2.22;;;;;;;19.37;79.16;99354.22;5104551;28;20043;-63
2022/07/22 05:03:42;;;;;;;2.63;2.05;;;;;;;19.54;78.17;99368.03;5104129;28;20023;-63
2022/07/22 05:06:08;;;;;;;4.65;2.35;;;;;;;19.86;77.35;99373.06;5100460;28;20021;-64
2022/07/22 05:08:34;;;;;;;2.55;2.30;;;;;;;19.89;76.76;99368.44;5103824;28;20091;-64
2022/07/22 05:10:59;;;;;;;3.55;2.20;;;;;;;19.83;76.45;99359.16;5087640;28;20182;-63
2022/07/22 05:13:25;;;;;;;3.38;2.13;;;;;;;19.97;76.31;99357.44;5104014;28;20243;-62
2022/07/22 05:15:51;;;;;;;3.65;1.98;;;;;;;20.00;77.32;99354.59;5104117;28;20028;-61
2022/07/22 05:18:17;;;;;;;2.75;1.98;;;;;;;20.17;76.71;99364.81;5103697;28;20062;-62
2022/07/22 05:20:43;;;;;;;4.15;2.30;;;;;;;20.25;76.65;99371.34;5102373;28;20053;-62
2022/07/22 05:23:09;;;;;;;2.17;1.95;;;;;;;20.38;76.18;99369.63;5101723;28;20205;-61
2022/07/22 05:25:35;;;;;;;3.95;2.10;;;;;;;20.45;76.17;99356.88;5083584;28;20305;-61
2022/07/22 05:28:00;;;;;;;3.38;1.70;;;;;;;20.54;75.13;99364.16;5092638;28;20118;-61
2022/07/22 05:30:26;;;;;;;4.80;1.85;;;;;;;20.66;75.03;99363.31;5095889;28;20046;-62
2022/07/22 05:32:52;;;;;;;3.33;1.90;;;;;;;20.71;74.32;99368.28;5102308;28;20099;-62
2022/07/22 05:35:18;;;;;;;1.95;1.83;;;;;;;20.77;74.99;99365.22;5103807;28;20058;-61
2022/07/22 05:37:45;;;;;;;2.33;1.98;;;;;;;20.80;75.28;99370.28;5102549;28;20027;-62
2022/07/22 05:40:11;;;;;;;1.70;1.60;;;;;;;20.79;73.19;99371.25;5097459;28;20040;-62
2022/07/22 05:42:36;;;;;;;4.03;1.95;;;;;;;20.93;73.68;99367.63;5102299;28;20036;-63
2022/07/22 05:45:02;;;;;;;4.90;2.28;;;;;;;21.03;74.02;99379.22;5102465;28;20035;-62
2022/07/22 05:47:29;;;;;;;4.38;1.80;;;;;;;20.98;71.93;99380.50;5103041;28;20276;-61
2022/07/22 05:49:54;;;;;;;3.95;2.20;;;;;;;20.98;73.17;99364.69;5091341;28;20025;-61
2022/07/22 05:52:20;;;;;;;6.75;2.15;;;;;;;21.06;72.83;99383.41;5102601;28;20027;-61
2022/07/22 05:54:46;;;;;;;7.35;2.13;;;;;;;21.11;72.38;99383.94;5103179;28;20031;-61
2022/07/22 05:57:11;;;;;;;3.15;2.10;;;;;;;21.16;72.57;99378.34;5103115;28;20182;-62
2022/07/22 05:59:37;;;;;;;4.60;1.90;;;;;;;21.16;72.24;99381.84;5093320;28;20027;-61
2022/07/22 06:02:03;;;;;;;2.00;1.60;;;;;;;21.23;72.09;99381.41;5103201;28;20028;-61
2022/07/22 06:04:29;;;;;;;5.00;2.40;;;;;;;21.17;71.79;99377.41;5103332;28;20069;-62
2022/07/22 06:06:54;;;;;;;3.22;2.08;;;;;;;21.14;71.61;99389.00;5098083;28;20205;-61
2022/07/22 06:09:20;;;;;;;4.47;1.80;;;;;;;21.26;71.71;99391.72;5083887;28;20258;-61
2022/07/22 06:11:46;;;;;;;3.72;1.90;;;;;;;21.13;70.22;99387.28;5090926;28;20020;-62
2022/07/22 06:14:12;;;;;;;5.18;1.90;;;;;;;21.30;70.93;99386.09;5102673;28;20055;-62
2022/07/22 06:16:38;;;;;;;2.58;1.80;;;;;;;21.36;70.90;99371.66;5103035;28;20020;-62
2022/07/22 06:19:03;;;;;;;2.55;1.77;;;;;;;21.47;70.31;99390.19;5102559;28;20094;-62
2022/07/22 06:21:29;;;;;;;2.55;1.80;;;;;;;21.44;70.36;99382.50;5093787;28;20205;-62
2022/07/22 06:23:55;;;;;;;6.28;2.13;;;;;;;21.55;68.76;99387.03;5091798;28;20393;-61
2022/07/22 06:26:20;;;;;;;2.97;1.80;;;;;;;21.65;69.84;99385.41;5096400;28;20251;-61
2022/07/22 06:28:46;;;;;;;3.95;1.85;;;;;;;21.76;69.56;99389.88;5083384;28;20032;-61
2022/07/22 06:31:12;;;;;;;3.45;2.00;;;;;;;21.86;68.69;99388.28;5101743;28;20035;-62
2022/07/22 06:33:38;;;;;;;2.70;1.77;;;;;;;21.92;68.77;99384.34;5099405;28;20027;-62
2022/07/22 06:36:04;;;;;;;1.90;1.77;;;;;;;21.95;69.07;99385.91;5102729;28;20198;-62
2022/07/22 06:38:30;;;;;;;3.97;1.83;;;;;;;21.78;67.13;99398.53;5093228;28;20269;-62
2022/07/22 06:40:56;;;;;;;2.63;1.83;;;;;;;21.88;67.59;99393.44;5085389;28;20088;-61
2022/07/22 06:43:21;;;;;;;1.60;1.50;;;;;;;22.03;67.57;99383.53;5102080;28;20247;-62
2022/07/22 06:45:47;;;;;;;2.15;1.67;;;;;;;22.14;68.69;99388.88;5102250;28;20291;-62
2022/07/22 06:48:13;;;;;;;3.13;1.50;;;;;;;22.06;65.35;99396.50;5102396;28;20400;-61
2022/07/22 06:50:39;;;;;;;1.70;1.52;;;;;;;22.13;65.31;99397.72;5095493;28;20038;-60
2022/07/22 06:53:04;;;;;;;3.90;1.73;;;;;;;22.24;65.43;99408.31;5085139;28;20041;-60
2022/07/22 06:55:30;;;;;;;3.47;1.67;;;;;;;22.17;64.67;99404.47;5095088;28;20048;-60
2022/07/22 06:57:56;;;;;;;4.43;1.77;;;;;;;22.24;63.66;99392.50;5102111;28;20047;-60
2022/07/22 07:00:22;;;;;;;5.00;1.70;;;;;;;22.34;64.16;99394.50;5095611;28;20035;-61
2022/07/22 07:02:47;;;;;;;2.25;1.70;;;;;;;22.46;63.79;99390.94;5090043;28;20236;-61
2022/07/22 07:05:13;;;;;;;3.85;1.80;;;;;;;22.37;63.89;99394.25;5102377;28;20046;-60
2022/07/22 07:07:39;;;;;;;2.97;1.73;;;;;;;22.51;63.41;99401.97;5084011;28;20037;-61
2022/07/22 07:10:05;;;;;;;3.25;1.83;;;;;;;22.64;65.05;99390.47;5100891;28;20067;-61
2022/07/22 07:12:30;;;;;;;4.38;1.65;;;;;;;22.73;64.43;99389.75;5102086;28;20320;-61
2022/07/22 07:14:56;;;;;;;2.55;1.90;;;;;;;22.75;62.43;99390.50;5102059;28;20142;-61
2022/07/22 07:17:21;;;;;;;2.38;1.40;;;;;;;22.72;63.42;99398.66;5094774;28;20047;-60
2022/07/22 07:19:47;;;;;;;2.15;1.60;;;;;;;22.67;63.64;99409.56;5101583;28;20046;-62
2022/07/22 07:22:13;;;;;;;2.45;1.70;;;;;;;22.45;62.13;99401.59;5101402;28;20024;-61
2022/07/22 07:24:38;;;;;;;3.00;1.77;;;;;;;22.69;61.75;99412.09;5101427;28;20045;-61
2022/07/22 07:27:04;;;;;;;3.38;1.42;;;;;;;22.69;62.26;99398.91;5095861;28;20043;-62
2022/07/22 07:29:30;;;;;;;3.42;1.67;;;;;;;22.84;61.63;99395.06;5096271;28;20048;-61
2022/07/22 07:31:55;;;;;;;1.95;1.50;;;;;;;22.94;62.07;99392.53;5093832;28;20032;-61
2022/07/22 07:34:21;;;;;;;4.20;1.60;;;;;;;23.09;61.00;99395.81;5101789;28;20230;-61
2022/07/22 07:36:47;;;;;;;4.18;1.77;;;;;;;23.04;60.74;99401.41;5101871;28;20032;-60
2022/07/22 07:39:12;;;;;;;1.73;1.52;;;;;;;23.12;62.04;99400.88;5091809;28;20332;-60
2022/07/22 07:41:38;;;;;;;6.20;1.70;;;;;;;23.23;60.76;99398.22;5087176;28;20028;-60
2022/07/22 07:44:03;;;;;;;2.45;1.63;;;;;;;23.33;60.47;99405.41;5087030;28;20059;-60
2022/07/22 07:46:29;;;;;;;2.95;1.50;;;;;;;23.34;60.19;99413.22;5101668;28;20197;-61
2022/07/22 07:48:55;;;;;;;6.03;1.77;;;;;;;23.38;60.10;99411.19;5097406;28;20021;-61
2022/07/22 07:51:20;;;;;;;1.60;1.50;;;;;;;23.29;58.46;99407.47;5093373;28;20047;-60
2022/07/22 07:53:46;;;;;;;2.38;1.60;;;;;;;23.35;58.67;99399.03;5091249;28;20261;-61
2022/07/22 07:56:12;;;;;;;3.10;1.77;;;;;;;23.61;60.76;99407.56;5087166;28;20260;-60
2022/07/22 07:58:37;;;;;;;5.22;1.63;;;;;;;23.71;59.69;99412.09;5091228;28;20328;-60
2022/07/22 08:01:03;;;;;;;3.00;1.67;;;;;;;23.81;59.55;99418.31;5105455;28;20074;-61
2022/07/22 08:03:29;;;;;;;4.68;1.63;;;;;;;23.50;57.11;99401.44;5096582;28;20261;-59
2022/07/22 08:06:13;;;;;;;2.85;1.80;;;;;;;23.72;58.42;99405.84;5094012;28;20020;-59
2022/07/22 08:08:38;;;;;;;3.03;1.60;;;;;;;23.78;56.65;99410.63;5100112;28;20037;-59
2022/07/22 08:11:04;;;;;;;5.55;1.40;;;;;;;23.87;58.24;99398.47;5093474;28;20040;-60
2022/07/22 08:13:30;;;;;;;2.60;1.50;;;;;;;23.74;56.88;99406.53;5103935;28;20201;-59
2022/07/22 08:15:56;;;;;;;2.20;1.50;;;;;;;23.94;57.79;99408.44;5105502;28;20220;-60
2022/07/22 08:18:22;;;;;;;5.05;1.60;;;;;;;23.82;55.80;99409.41;5105383;28;20023;-60
2022/07/22 08:20:47;;;;;;;2.38;1.50;;;;;;;23.91;56.16;99405.19;5109910;28;20039;-61
2022/07/22 08:23:13;;;;;;;5.50;1.60;;;;;;;23.98;56.83;99411.66;5097457;28;20039;-61
2022/07/22 08:25:38;;;;;;;4.05;1.73;;;;;;;24.04;56.86;99411.19;5103830;28;20024;-61
2022/07/22 08:28:05;;;;;;;1.67;1.58;;;;;;;24.04;56.30;99407.69;5104780;28;20024;-62
2022/07/22 08:30:30;;;;;;;3.30;1.60;;;;;;;24.13;56.28;99413.06;5096972;28;20051;-61
2022/07/22 08:32:56;;;;;;;3.63;1.50;;;;;;;24.19;56.90;99410.88;5095331;28;20073;-60
2022/07/22 08:35:22;;;;;;;2.33;1.40;;;;;;;23.89;54.54;99418.56;5103951;28;20028;-59
2022/07/22 08:37:48;;;;;;;2.85;1.63;;;;;;;23.72;54.78;99414.59;5104670;28;20024;-60
2022/07/22 08:40:15;;;;;;;1.70;1.60;;;;;;;24.01;55.07;99418.53;5089655;28;20333;-61
2022/07/22 08:42:43;;;;;;;3.47;1.80;;;;;;;23.97;54.40;99390.63;5100235;28;20024;-62
2022/07/22 08:45:10;;;;;;;5.85;1.85;;;;;;;24.24;55.64;99420.13;5104529;28;20036;-62
2022/07/22 08:47:36;;;;;;;1.70;1.30;;;;;;;24.26;54.62;99427.94;5104767;28;20024;-62
2022/07/22 08:50:03;;;;;;;3.13;1.42;;;;;;;23.98;53.36;99424.91;5104603;28;20095;-62
2022/07/22 08:52:29;;;;;;;3.78;1.30;;;;;;;24.03;54.46;99424.50;5091004;28;20025;-60
2022/07/22 08:54:55;;;;;;;5.25;1.90;;;;;;;24.15;55.92;99428.81;5096355;28;20066;-60
2022/07/22 08:57:20;;;;;;;3.58;1.50;;;;;;;24.34;55.46;99424.63;5095725;28;20061;-61
2022/07/22 08:59:57;;;;;;;2.35;1.50;;;;;;;24.18;56.43;99388.84;5099826;28;20322;-61
2022/07/22 09:02:24;;;;;;;5.65;1.88;;;;;;;24.36;55.37;99426.19;5097166;28;20260;-60
2022/07/22 09:05:00;;;;;;;3.47;1.42;;;;;;;24.24;53.92;99395.44;5096143;28;20053;-60
2022/07/22 09:07:46;;;;;;;3.17;1.70;;;;;;;24.19;54.00;99432.88;5093220;28;20049;-60
2022/07/22 09:10:15;;;;;;;5.10;1.67;;;;;;;24.07;53.40;99418.88;5097844;28;20063;-61
2022/07/22 09:12:58;;;;;;;1.45;1.35;;;;;;;24.34;53.65;99424.63;5102464;28;20062;-61
2022/07/22 09:15:36;;;;;;;3.33;1.90;;;;;;;24.48;53.09;99424.31;5104146;28;20054;-61
2022/07/22 09:18:02;;;;;;;2.65;1.50;;;;;;;24.45;53.27;99437.81;5092642;28;20028;-62
2022/07/22 09:20:29;;;;;;;1.65;1.55;;;;;;;24.55;54.05;99429.94;5102643;28;20074;-61
2022/07/22 09:22:55;;;;;;;2.47;1.40;;;;;;;24.56;53.37;99439.59;5103044;28;20095;-62
2022/07/22 09:25:32;;;;;;;2.88;1.33;;;;;;;24.56;54.19;99390.09;5103424;28;20040;-62
2022/07/22 09:28:19;;;;;;;3.30;1.80;;;;;;;24.93;53.43;99431.19;5098600;28;20020;-62
2022/07/22 09:30:51;;;;;;;4.82;1.70;;;;;;;24.83;53.45;99428.47;5103600;28;20077;-61
2022/07/22 09:33:19;;;;;;;5.28;2.72;;;;;;;24.90;55.57;99440.25;5103789;28;20355;-61
2022/07/22 09:35:46;;;;;;;2.90;1.70;;;;;;;24.87;54.31;99437.00;5103464;28;20320;-61
2022/07/22 09:38:13;;;;;;;6.93;2.47;;;;;;;25.02;54.13;99440.16;5103447;28;20205;-62
2022/07/22 09:40:41;;;;;;;3.17;1.88;;;;;;;25.15;55.02;99430.16;5101376;28;20024;-62
2022/07/22 09:43:12;;;;;;;3.25;1.90;;;;;;;24.74;51.09;99400.13;5101786;28;20224;-63
2022/07/22 09:45:56;;;;;;;1.85;1.70;;;;;;;24.62;51.89;99436.44;5102918;28;20024;-61
2022/07/22 09:48:23;;;;;;;2.83;1.48;;;;;;;24.29;52.03;99390.63;5103264;28;20032;-62
2022/07/22 09:50:51;;;;;;;2.97;1.38;;;;;;;24.89;52.68;99446.50;5102084;28;20040;-61
2022/07/22 09:53:19;;;;;;;2.17;1.73;;;;;;;24.72;51.94;99429.38;5103378;28;20028;-60
2022/07/22 09:55:46;;;;;;;2.90;1.75;;;;;;;24.89;52.45;99437.72;5103264;28;20047;-62
2022/07/22 09:58:12;;;;;;;4.97;2.88;;;;;;;25.02;52.98;99450.75;5103157;28;20085;-62
2022/07/22 10:00:39;;;;;;;1.77;1.30;;;;;;;25.05;52.34;99439.88;5103000;28;20036;-62
2022/07/22 10:03:07;;;;;;;1.77;1.60;;;;;;;25.07;53.29;99395.53;5103049;28;20040;-62
2022/07/22 10:05:37;;;;;;;2.72;1.70;;;;;;;25.15;53.10;99398.34;5102816;28;20028;-62
2022/07/22 10:08:04;;;;;;;2.13;1.50;;;;;;;25.15;52.97;99401.88;5098876;28;20027;-62
2022/07/22 10:10:32;;;;;;;2.08;1.50;;;;;;;25.22;52.09;99390.72;5102651;28;20212;-62
2022/07/22 10:13:00;;;;;;;6.07;1.50;;;;;;;25.43;52.58;99443.72;5102808;28;20204;-62
2022/07/22 10:15:27;;;;;;;3.15;1.60;;;;;;;25.28;53.16;99441.41;5102645;28;20094;-62
2022/07/22 10:17:56;;;;;;;3.65;1.58;;;;;;;24.91;52.52;99428.69;5101968;28;20441;-62
2022/07/22 10:20:27;;;;;;;2.42;1.55;;;;;;;24.61;51.40;99418.88;5102477;28;20050;-61
2022/07/22 10:22:52;;;;;;;3.28;1.75;;;;;;;24.73;52.88;99456.72;5096027;28;20031;-63
2022/07/22 10:25:20;;;;;;;1.45;1.35;;;;;;;24.73;51.87;99456.72;5100178;28;20378;-62
2022/07/22 10:27:56;;;;;;;4.20;2.00;;;;;;;24.97;53.66;99454.63;5101879;28;20389;-62
2022/07/22 10:30:23;;;;;;;4.63;1.60;;;;;;;25.02;52.49;99458.72;5093406;28;20081;-63
2022/07/22 10:33:29;;;;;;;3.40;1.98;;;;;;;24.94;52.27;99444.31;5102094;28;20039;-62
2022/07/22 10:36:03;;;;;;;2.95;1.50;;;;;;;24.77;50.59;99429.00;5020470;28;20041;-63
2022/07/22 10:38:31;;;;;;;1.85;1.55;;;;;;;24.74;51.47;99405.41;5087149;28;20047;-63
2022/07/22 10:41:09;;;;;;;6.38;1.90;;;;;;;24.98;52.59;99451.03;5102925;28;20289;-62
2022/07/22 10:43:41;;;;;;;5.90;1.90;;;;;;;24.96;51.88;99452.94;5102113;28;20028;-62
2022/07/22 10:46:07;;;;;;;2.20;1.40;;;;;;;24.87;52.38;99442.28;5101647;28;20319;-62
2022/07/22 10:48:33;;;;;;;2.17;1.52;;;;;;;24.87;51.23;99458.19;5101835;28;20514;-62
2022/07/22 10:51:13;;;;;;;2.67;1.65;;;;;;;25.13;51.21;99453.31;5102027;28;20016;-61
2022/07/22 10:53:58;;;;;;;2.72;1.52;;;;;;;25.01;49.87;99457.03;5102032;28;20035;-63
2022/07/22 10:56:31;;;;;;;1.95;1.65;;;;;;;25.04;51.01;99462.06;5084304;28;20225;-63
2022/07/22 10:59:09;;;;;;;2.50;1.38;;;;;;;24.89;49.39;99458.91;5102265;28;20035;-63
2022/07/22 11:01:36;;;;;;;4.55;1.67;;;;;;;24.77;49.31;99458.97;5086189;28;20028;-63
2022/07/22 11:04:30;;;;;;;1.50;1.40;;;;;;;24.64;50.51;99421.25;5102088;28;20024;-63
2022/07/22 11:06:57;;;;;;;2.05;1.58;;;;;;;24.80;51.54;99452.59;5101621;28;20074;-63
2022/07/22 11:09:30;;;;;;;4.07;1.60;;;;;;;24.88;51.21;99458.06;5102250;28;20036;-63
2022/07/22 11:11:56;;;;;;;3.28;1.70;;;;;;;24.70;51.71;99439.28;5102124;28;20031;-63
2022/07/22 11:14:35;;;;;;;1.70;1.60;;;;;;;24.78;51.65;99454.50;5101907;28;20300;-63
2022/07/22 11:17:07;;;;;;;2.05;1.50;;;;;;;24.66;53.06;99445.81;5102342;28;20059;-62
2022/07/22 11:19:33;;;;;;;4.57;1.70;;;;;;;24.55;51.12;99462.56;5102082;28;20050;-62
2022/07/22 11:22:04;;;;;;;2.03;1.75;;;;;;;24.68;52.01;99459.75;5119485;28;20020;-63
2022/07/22 11:24:31;;;;;;;2.00;1.70;;;;;;;24.81;52.47;99459.53;5109764;28;20039;-63
2022/07/22 11:26:58;;;;;;;1.73;1.63;;;;;;;24.89;52.00;99454.44;5101953;28;20347;-62
2022/07/22 11:29:35;;;;;;;3.33;1.70;;;;;;;24.95;52.16;99461.03;5100721;28;20052;-62
2022/07/22 11:32:04;;;;;;;2.60;1.55;;;;;;;25.06;50.58;99442.41;5105950;28;20043;-62
2022/07/22 11:34:30;;;;;;;1.60;1.50;;;;;;;25.26;53.74;99442.50;5105599;28;20034;-62